Coral Canyon GC
1925 N Canyon Greens Drive, Washington
Last Weather Update:04/16/2012 11:00:00 AM
Date
ETo
ETc
Rain
Irrigation
Req
Temp
Max
Temp
Min
Temp
Avg
Avg RH
Avg Wind
Avg Solar
inches
inches
incehs
inches
F
F
F
%
%
watts/m2
03/01/2012 0.08" 0.00" 0.00" 0.00" 57.6° 33.3° 45.8° 46.5% 0.1 MPH 161.0w/m2
03/02/2012 0.09" 0.00" 0.00" 0.00" 49.8° 23.1° 37.7° 32.7% 0.3 MPH 221.8w/m2
03/03/2012 0.09" 0.00" 0.00" 0.00" 59.4° 20.5° 38.6° 48.8% 0.4 MPH 220.8w/m2
03/04/2012 0.10" 0.01" 0.00" 0.01" 67.6° 27.2° 45.8° 53.0% 0.5 MPH 222.2w/m2
03/05/2012 0.12" 0.01" 0.00" 0.01" 73.0° 30.4° 51.3° 40.9% 1.3 MPH 216.2w/m2
03/06/2012 0.11" 0.01" 0.00" 0.01" 70.6° 42.9° 56.7° 23.2% 1.2 MPH 166.9w/m2
03/07/2012 0.08" 0.01" 0.04" -0.02" 50.6° 31.4° 39.1° 57.1% 2.5 MPH 192.8w/m2
03/08/2012 0.10" 0.01" 0.00" 0.01" 59.7° 27.3° 44.6° 36.7% 0.9 MPH 207.0w/m2
03/09/2012 0.11" 0.02" 0.00" 0.02" 67.0° 24.6° 45.0° 46.1% 0.7 MPH 231.4w/m2
03/10/2012 0.13" 0.02" 0.00" 0.02" 68.6° 32.3° 49.0° 38.4% 1.3 MPH 231.8w/m2
03/11/2012 0.12" 0.02" 0.00" 0.02" 68.6° 33.9° 51.0° 36.6% 1.6 MPH 223.6w/m2
03/12/2012 0.12" 0.02" 0.00" 0.02" 71.0° 42.2° 56.6° 24.9% 2.2 MPH 175.8w/m2
03/13/2012 0.14" 0.03" 0.00" 0.03" 73.0° 41.8° 56.6° 24.2% 1.3 MPH 235.6w/m2
03/14/2012 0.14" 0.03" 0.00" 0.03" 72.8° 39.7° 56.8° 29.4% 1.6 MPH 220.6w/m2
03/15/2012 0.13" 0.03" 0.00" 0.03" 74.5° 37.8° 55.8° 37.9% 0.9 MPH 221.6w/m2
03/16/2012 0.13" 0.03" 0.00" 0.03" 73.9° 41.2° 58.5° 34.8% 2.3 MPH 182.2w/m2
03/17/2012 0.08" 0.02" 0.13" -0.08" 66.1° 45.1° 58.4° 39.1% 3.0 MPH 53.1w/m2
03/18/2012 0.06" 0.02" 0.24" -0.17" 46.0° 36.3° 41.9° 66.0% 2.5 MPH 103.4w/m2
03/19/2012 0.07" 0.02" 0.05" -0.02" 49.3° 34.1° 39.9° 69.8% 1.9 MPH 163.1w/m2
03/20/2012 0.11" 0.04" 0.00" 0.04" 56.8° 27.7° 41.4° 64.1% 0.1 MPH 254.4w/m2
03/21/2012 0.12" 0.04" 0.00" 0.04" 69.6° 30.5° 49.5° 57.9% 0.0 MPH 255.5w/m2
03/22/2012 0.14" 0.05" 0.00" 0.05" 76.9° 37.6° 56.6° 49.1% 0.0 MPH 258.5w/m2
03/23/2012 0.14" 0.05" 0.00" 0.05" 76.9° 45.2° 61.3° 38.8% 0.0 MPH 246.0w/m2
03/24/2012 0.13" 0.05" 0.00" 0.05" 78.3° 45.9° 61.2° 37.2% 0.3 MPH 213.0w/m2
03/25/2012 0.11" 0.04" 0.00" 0.04" 74.8° 52.4° 64.3° 26.0% 1.5 MPH 124.9w/m2
03/26/2012 0.14" 0.06" 0.02" 0.04" 62.8° 39.1° 51.5° 46.1% 2.8 MPH 254.1w/m2
03/27/2012 0.13" 0.06" 0.00" 0.06" 69.9° 35.6° 51.8° 46.1% 1.2 MPH 227.5w/m2
03/28/2012 0.15" 0.07" 0.00" 0.07" 72.3° 40.9° 57.2° 37.1% 1.8 MPH 208.0w/m2
03/29/2012 0.13" 0.06" 0.00" 0.06" 73.0° 39.0° 56.2° 43.8% 0.8 MPH 209.1w/m2
03/30/2012 0.17" 0.08" 0.00" 0.08" 79.8° 39.6° 59.5° 41.4% 1.8 MPH 258.5w/m2
03/31/2012 0.23" 0.12" 0.00" 0.12" 82.1° 50.4° 67.4° 28.0% 4.9 MPH 275.8w/m2
Totals: 3.69" 1.04" 0.48" 0.65" 82.1° 20.5° 51.8° 42.0% 1.3 MPH 207.6w/m2